Terminal Aerodrome Forecast
Issued by NWS

Home | Current Version | Previous Version | Text Only | Print | Product List | Glossary On
Versions: 1 2 3 4 5 6 7 8 9 10 11 12 13 14 15 16 17 18 19 20 21 22 23 24
000
FTAK31 PAFA 141134
TAFAMC
TAF
PAMC 141134Z 1412/1512 20012G22KT P6SM VCSH SCT025 BKN035 OVC050
     FM141500 20012G22KT 6SM -RA BR BKN025 OVC035
     FM142200 22012G21KT P6SM -SHRA BKN025 OVC035
     FM150300 22008KT P6SM VCSH BKN035 OVC050=

USA.gov is the U.S. government's official web portal to all federal, state and local government web resources and services.